createdAt,value
2017-08-31T00:00:03.560Z,54.40
2017-08-31T00:02:29.768Z,54.60
2017-08-31T00:04:57.747Z,54.40
2017-08-31T00:07:25.660Z,54.40
2017-08-31T00:09:51.899Z,54.30
2017-08-31T00:12:18.061Z,54.20
2017-08-31T00:14:44.288Z,54.30
2017-08-31T00:17:10.440Z,54.30
2017-08-31T00:19:36.870Z,54.30
2017-08-31T00:22:03.036Z,54.30
2017-08-31T00:24:29.220Z,54.10
2017-08-31T00:26:55.399Z,54.20
2017-08-31T00:29:21.590Z,54.30
2017-08-31T00:31:47.795Z,54.30
2017-08-31T00:34:14.004Z,54.20
2017-08-31T00:36:40.226Z,54.40
2017-08-31T00:39:06.395Z,54.20
2017-08-31T00:41:33.108Z,54.50
2017-08-31T00:43:59.366Z,54.30
2017-08-31T00:46:25.541Z,54.40
2017-08-31T00:48:51.706Z,54.40
2017-08-31T00:51:17.900Z,54.50
2017-08-31T00:53:44.054Z,54.40
2017-08-31T00:56:10.268Z,54.40
2017-08-31T00:58:36.539Z,54.50
2017-08-31T01:01:02.715Z,54.70
2017-08-31T01:03:28.871Z,54.40
2017-08-31T01:05:55.030Z,54.30
2017-08-31T01:08:21.216Z,54.40
2017-08-31T01:10:47.375Z,54.40
2017-08-31T01:13:13.553Z,54.30
2017-08-31T01:15:39.725Z,54.50
2017-08-31T01:18:05.891Z,54.20
2017-08-31T01:20:32.085Z,54.40
2017-08-31T01:22:58.238Z,54.10
2017-08-31T01:25:24.430Z,53.90
2017-08-31T01:27:50.628Z,54.10
2017-08-31T01:30:16.830Z,54.00
2017-08-31T01:32:43.043Z,54.00
2017-08-31T01:35:09.246Z,53.90
2017-08-31T01:37:35.439Z,53.70
2017-08-31T01:40:01.689Z,53.70
2017-08-31T01:42:27.867Z,53.80
2017-08-31T01:44:54.156Z,53.70
2017-08-31T01:50:29.323Z,53.70
2017-08-31T01:52:55.518Z,53.80
2017-08-31T01:55:21.722Z,54.00
2017-08-31T01:57:47.924Z,54.00
2017-08-31T02:00:17.542Z,54.20
2017-08-31T02:02:43.747Z,54.10
2017-08-31T02:05:09.935Z,54.80
2017-08-31T02:07:36.087Z,54.20
2017-08-31T02:10:02.293Z,54.20
2017-08-31T02:12:28.510Z,54.30
2017-08-31T02:14:54.683Z,54.10
2017-08-31T02:17:23.183Z,54.30
2017-08-31T02:19:49.370Z,54.30
2017-08-31T02:22:15.551Z,54.40
2017-08-31T02:24:41.710Z,54.60
2017-08-31T02:27:08.891Z,54.80
2017-08-31T02:29:35.053Z,55.00
2017-08-31T02:32:01.253Z,55.00
2017-08-31T02:34:27.476Z,55.20
2017-08-31T02:36:53.705Z,55.30
2017-08-31T02:39:19.863Z,55.60
2017-08-31T02:41:46.064Z,55.50
2017-08-31T02:44:12.215Z,55.70
2017-08-31T02:46:38.401Z,55.80
2017-08-31T02:49:04.540Z,56.00
2017-08-31T02:51:30.679Z,56.10
2017-08-31T02:53:56.831Z,56.70
2017-08-31T02:56:22.967Z,56.30
2017-08-31T02:58:49.188Z,56.30
2017-08-31T03:01:15.370Z,56.40
2017-08-31T03:03:41.530Z,56.70
2017-08-31T03:06:07.679Z,56.90
2017-08-31T03:08:33.868Z,57.10
2017-08-31T03:11:00.459Z,58.10
2017-08-31T03:13:26.639Z,57.60
2017-08-31T03:15:52.894Z,58.40
2017-08-31T03:18:19.095Z,57.70
2017-08-31T03:20:45.278Z,58.00
2017-08-31T03:23:11.459Z,57.80
2017-08-31T03:25:37.616Z,58.00
2017-08-31T03:28:03.787Z,58.20
2017-08-31T03:30:29.945Z,58.90
2017-08-31T03:32:56.145Z,58.80
2017-08-31T03:35:22.311Z,59.30
2017-08-31T03:37:48.505Z,59.40
2017-08-31T03:40:14.668Z,60.00
2017-08-31T03:42:40.843Z,59.70
2017-08-31T03:45:07.019Z,60.00
2017-08-31T03:47:33.171Z,60.50
2017-08-31T03:49:59.310Z,60.40
2017-08-31T03:52:25.467Z,61.50
2017-08-31T03:54:51.783Z,61.10
2017-08-31T03:57:17.955Z,61.20
2017-08-31T03:59:44.192Z,61.30
2017-08-31T04:02:11.448Z,61.00
2017-08-31T04:04:37.607Z,61.30
2017-08-31T04:07:03.787Z,61.50
2017-08-31T04:09:29.955Z,61.90
2017-08-31T04:11:56.109Z,62.30
2017-08-31T04:14:22.780Z,62.40
2017-08-31T04:16:48.926Z,62.20
2017-08-31T04:19:15.105Z,62.20
2017-08-31T04:21:41.260Z,62.30
2017-08-31T04:24:07.407Z,62.40
2017-08-31T04:26:33.554Z,62.30
2017-08-31T04:28:59.723Z,62.30
2017-08-31T04:31:25.911Z,62.30
2017-08-31T04:33:52.075Z,62.40
2017-08-31T04:36:18.219Z,62.20
2017-08-31T04:38:44.401Z,62.20
2017-08-31T04:41:10.550Z,62.20
2017-08-31T04:43:36.727Z,62.20
2017-08-31T04:46:02.909Z,62.50
2017-08-31T04:48:29.147Z,62.30
2017-08-31T04:50:55.315Z,62.20
2017-08-31T04:53:21.466Z,62.50
2017-08-31T04:55:47.684Z,62.50
2017-08-31T04:58:13.875Z,62.90
2017-08-31T05:00:40.180Z,62.70
2017-08-31T05:03:06.398Z,63.10
2017-08-31T05:05:32.731Z,63.30
2017-08-31T05:08:00.029Z,63.30
2017-08-31T05:10:26.983Z,63.10
2017-08-31T05:12:53.181Z,63.60
2017-08-31T05:15:19.372Z,63.70
2017-08-31T05:17:45.609Z,63.90
2017-08-31T05:20:11.801Z,64.40
2017-08-31T05:22:38.035Z,65.00
2017-08-31T05:25:07.022Z,65.20
2017-08-31T05:27:33.243Z,65.50
2017-08-31T05:29:59.429Z,65.70
2017-08-31T05:32:25.730Z,66.00
2017-08-31T05:34:51.926Z,66.60
2017-08-31T05:37:18.098Z,66.80
2017-08-31T05:39:44.286Z,66.70
2017-08-31T05:42:10.529Z,66.90
2017-08-31T05:44:36.690Z,66.90
2017-08-31T05:47:02.867Z,67.50
2017-08-31T05:49:29.032Z,68.10
2017-08-31T05:51:55.219Z,68.20
2017-08-31T05:54:21.386Z,68.60
2017-08-31T05:56:47.588Z,68.70
2017-08-31T05:59:13.770Z,69.20
2017-08-31T06:01:39.966Z,69.40
2017-08-31T06:04:06.119Z,69.40
2017-08-31T06:06:32.311Z,69.80
2017-08-31T06:08:58.459Z,69.60
2017-08-31T06:11:24.659Z,70.10
2017-08-31T06:13:50.839Z,70.00
2017-08-31T06:16:17.036Z,70.40
2017-08-31T06:18:43.197Z,71.00
2017-08-31T06:21:09.396Z,70.80
2017-08-31T06:23:35.550Z,71.60
2017-08-31T06:26:01.788Z,70.90
2017-08-31T06:28:27.948Z,71.30
2017-08-31T06:30:54.114Z,71.90
2017-08-31T06:33:20.283Z,72.60
2017-08-31T06:35:46.415Z,72.60
2017-08-31T06:38:12.594Z,71.60
2017-08-31T06:40:38.786Z,72.00
2017-08-31T06:43:04.993Z,71.90
2017-08-31T06:45:31.186Z,71.80
2017-08-31T06:47:57.364Z,71.70
2017-08-31T06:50:23.548Z,71.50
2017-08-31T06:52:49.711Z,72.00
2017-08-31T06:55:15.838Z,72.10
2017-08-31T06:57:42.015Z,71.30
2017-08-31T07:00:08.246Z,71.60
2017-08-31T07:02:36.516Z,72.00
2017-08-31T07:05:02.646Z,71.40
2017-08-31T07:07:28.813Z,71.40
2017-08-31T07:09:54.992Z,71.30
2017-08-31T07:12:21.144Z,71.50
2017-08-31T07:14:47.290Z,70.90
2017-08-31T07:17:13.452Z,70.60
2017-08-31T07:19:39.579Z,70.30
2017-08-31T07:22:05.783Z,70.50
2017-08-31T07:24:31.930Z,70.50
2017-08-31T07:26:58.099Z,70.70
2017-08-31T07:29:24.296Z,70.80
2017-08-31T07:31:50.450Z,69.90
2017-08-31T07:34:16.615Z,70.40
2017-08-31T07:36:42.754Z,70.00
2017-08-31T07:39:08.909Z,70.10
2017-08-31T07:41:35.055Z,70.00
2017-08-31T07:44:01.213Z,69.60
2017-08-31T07:46:27.350Z,69.60
2017-08-31T07:48:53.559Z,70.10
2017-08-31T07:51:19.714Z,69.70
2017-08-31T07:53:46.148Z,69.90
2017-08-31T07:56:12.431Z,69.90
2017-08-31T07:58:38.620Z,69.10
2017-08-31T08:01:04.777Z,69.30
2017-08-31T08:03:30.976Z,68.90
2017-08-31T08:05:57.136Z,67.90
2017-08-31T08:08:23.298Z,68.20
2017-08-31T08:10:49.449Z,68.50
2017-08-31T08:13:15.636Z,68.10
2017-08-31T08:15:41.801Z,68.20
2017-08-31T08:18:07.970Z,67.20
2017-08-31T08:20:34.126Z,66.10
2017-08-31T08:23:00.254Z,66.50
2017-08-31T08:25:26.431Z,66.00
2017-08-31T08:27:52.607Z,65.40
2017-08-31T08:30:18.774Z,65.00
2017-08-31T08:32:44.969Z,63.20
2017-08-31T08:35:11.128Z,67.40
2017-08-31T08:37:37.461Z,70.80
2017-08-31T08:40:03.644Z,71.10
2017-08-31T08:42:29.774Z,71.40
2017-08-31T08:44:56.045Z,71.10
2017-08-31T08:47:22.253Z,71.00
2017-08-31T08:49:48.462Z,71.30
2017-08-31T08:52:14.663Z,71.20
2017-08-31T08:54:41.055Z,69.80
2017-08-31T08:57:07.239Z,72.70
2017-08-31T08:59:33.558Z,71.10
2017-08-31T09:01:59.793Z,72.40
2017-08-31T09:04:25.979Z,73.00
2017-08-31T09:06:52.162Z,72.00
2017-08-31T09:09:18.428Z,71.00
2017-08-31T09:11:44.614Z,70.90
2017-08-31T09:14:11.162Z,71.00
2017-08-31T09:16:37.336Z,71.30
2017-08-31T09:19:03.535Z,70.90
2017-08-31T09:21:30.033Z,70.90
2017-08-31T09:23:56.335Z,69.00
2017-08-31T09:26:23.502Z,70.90
2017-08-31T09:28:49.711Z,69.60
2017-08-31T09:31:16.052Z,68.50
2017-08-31T09:33:42.212Z,70.70
2017-08-31T09:36:08.392Z,70.20
2017-08-31T09:38:34.578Z,68.60
2017-08-31T09:41:00.773Z,63.70
2017-08-31T09:43:26.953Z,64.90
2017-08-31T09:45:53.140Z,64.00
2017-08-31T09:48:19.271Z,65.60
2017-08-31T09:50:45.471Z,64.40
2017-08-31T09:53:11.637Z,61.50
2017-08-31T09:55:37.798Z,62.40
2017-08-31T09:58:03.978Z,60.40
2017-08-31T10:00:30.139Z,59.10
2017-08-31T10:02:56.320Z,59.80
2017-08-31T10:05:22.563Z,60.70
2017-08-31T10:07:48.820Z,56.90
2017-08-31T10:10:14.966Z,58.00
2017-08-31T10:12:41.413Z,59.50
2017-08-31T10:15:07.593Z,59.40
2017-08-31T10:17:33.809Z,58.40
2017-08-31T10:19:59.995Z,57.60
2017-08-31T10:22:26.155Z,56.10
2017-08-31T10:24:52.298Z,57.60
2017-08-31T10:27:18.491Z,56.50
2017-08-31T10:29:45.156Z,57.10
2017-08-31T10:32:11.351Z,57.40
2017-08-31T10:34:37.607Z,56.30
2017-08-31T10:37:03.766Z,57.40
2017-08-31T10:39:31.107Z,57.00
2017-08-31T10:41:57.275Z,57.00
2017-08-31T10:44:23.508Z,57.10
2017-08-31T10:46:49.699Z,56.50
2017-08-31T10:49:15.883Z,56.40
2017-08-31T10:51:42.058Z,55.80
2017-08-31T10:54:08.228Z,55.70
2017-08-31T10:56:34.390Z,54.70
2017-08-31T10:59:00.619Z,55.50
2017-08-31T11:01:26.790Z,54.60
2017-08-31T11:03:53.163Z,53.50
2017-08-31T11:06:19.319Z,52.10
2017-08-31T11:08:45.471Z,52.50
2017-08-31T11:11:11.630Z,51.10
2017-08-31T11:13:37.771Z,51.10
2017-08-31T11:16:03.947Z,51.30
2017-08-31T11:18:30.140Z,51.20
2017-08-31T11:20:56.892Z,51.20
2017-08-31T11:23:23.034Z,51.10
2017-08-31T11:25:49.187Z,51.10
2017-08-31T11:28:15.489Z,51.70
2017-08-31T11:30:41.752Z,50.30
2017-08-31T11:33:08.032Z,49.40
2017-08-31T11:35:34.141Z,50.40
2017-08-31T11:38:01.175Z,49.80
2017-08-31T11:40:27.346Z,48.80
2017-08-31T11:42:53.490Z,48.10
2017-08-31T11:45:19.647Z,47.70
2017-08-31T11:47:45.799Z,46.90
2017-08-31T11:50:11.927Z,46.80
2017-08-31T11:52:38.083Z,47.40
2017-08-31T11:55:05.330Z,46.60
2017-08-31T11:57:32.893Z,46.60
2017-08-31T11:59:59.065Z,46.70
2017-08-31T12:02:25.259Z,46.40
2017-08-31T12:04:51.504Z,45.40
2017-08-31T12:07:18.832Z,46.30
2017-08-31T12:09:45.251Z,46.00
2017-08-31T12:12:11.425Z,45.10
2017-08-31T12:14:37.597Z,46.10
2017-08-31T12:17:03.759Z,46.20
2017-08-31T12:19:29.952Z,45.50
2017-08-31T12:21:57.135Z,44.10
2017-08-31T12:24:23.275Z,44.00
2017-08-31T12:26:49.418Z,43.00
2017-08-31T12:29:15.550Z,40.10
2017-08-31T12:31:41.703Z,41.00
2017-08-31T12:34:07.842Z,41.00
2017-08-31T12:36:34.025Z,41.80
2017-08-31T12:39:00.236Z,41.70
2017-08-31T12:41:26.414Z,42.30
2017-08-31T12:43:52.557Z,39.80
2017-08-31T12:46:18.736Z,41.00
2017-08-31T12:48:44.975Z,41.80
2017-08-31T12:51:11.131Z,42.30
2017-08-31T12:53:37.322Z,42.70
2017-08-31T12:56:03.472Z,41.00
2017-08-31T12:58:29.630Z,43.10
2017-08-31T13:00:55.786Z,42.20
2017-08-31T13:03:23.962Z,41.80
2017-08-31T13:05:50.104Z,42.20
2017-08-31T13:08:16.262Z,41.70
2017-08-31T13:10:42.419Z,42.00
2017-08-31T13:15:45.788Z,42.20
2017-08-31T13:18:11.939Z,41.60
2017-08-31T13:20:38.293Z,42.60
2017-08-31T13:23:04.515Z,43.50
2017-08-31T13:25:30.731Z,42.40
2017-08-31T13:27:56.964Z,42.00
2017-08-31T13:30:23.102Z,43.20
2017-08-31T13:32:49.328Z,43.50
2017-08-31T13:35:15.467Z,42.40
2017-08-31T13:37:41.664Z,42.80
2017-08-31T13:40:07.838Z,42.20
2017-08-31T13:42:34.023Z,42.20
2017-08-31T13:45:00.175Z,43.50
2017-08-31T13:47:26.315Z,42.20
2017-08-31T13:49:52.491Z,42.30
2017-08-31T13:52:19.895Z,42.00
2017-08-31T13:54:46.221Z,42.10
2017-08-31T13:57:12.387Z,42.00
2017-08-31T13:59:38.584Z,42.00
2017-08-31T14:02:04.807Z,42.70
2017-08-31T14:04:31.108Z,41.90
2017-08-31T14:06:57.280Z,42.00
2017-08-31T14:09:23.491Z,42.20
2017-08-31T14:11:49.634Z,41.90
2017-08-31T14:14:15.831Z,42.50
2017-08-31T14:16:41.995Z,43.20
2017-08-31T14:19:08.214Z,43.40
2017-08-31T14:21:36.040Z,42.40
2017-08-31T14:24:02.310Z,43.00
2017-08-31T14:26:28.470Z,42.00
2017-08-31T14:28:54.651Z,41.90
2017-08-31T14:31:20.864Z,43.00
2017-08-31T14:33:47.039Z,42.70
2017-08-31T14:36:13.223Z,42.50
2017-08-31T14:38:39.418Z,42.50
2017-08-31T14:41:06.139Z,44.40
2017-08-31T14:43:32.270Z,42.10
2017-08-31T14:45:58.399Z,42.70
2017-08-31T14:48:24.529Z,42.90
2017-08-31T14:50:50.727Z,43.00
2017-08-31T14:53:16.899Z,43.10
2017-08-31T14:55:43.081Z,44.40
2017-08-31T14:58:09.239Z,43.70
2017-08-31T15:00:35.435Z,43.50
2017-08-31T15:03:01.609Z,43.50
2017-08-31T15:05:27.796Z,43.90
2017-08-31T15:07:53.949Z,43.90
2017-08-31T15:10:20.923Z,44.60
2017-08-31T15:12:48.500Z,44.40
2017-08-31T15:17:56.415Z,44.80
2017-08-31T15:20:22.567Z,44.30
2017-08-31T15:22:48.689Z,44.50
2017-08-31T15:25:19.759Z,45.50
2017-08-31T15:27:45.947Z,44.20
2017-08-31T15:30:12.094Z,44.40
2017-08-31T15:32:39.905Z,44.10
2017-08-31T15:35:06.095Z,44.40
2017-08-31T15:37:32.250Z,43.70
2017-08-31T15:39:58.438Z,44.60
2017-08-31T15:42:27.585Z,44.50
2017-08-31T15:44:53.802Z,44.80
2017-08-31T15:47:19.985Z,44.00
2017-08-31T15:49:46.143Z,44.50
2017-08-31T15:52:20.461Z,44.30
2017-08-31T15:54:48.774Z,45.00
2017-08-31T15:57:14.935Z,45.40
2017-08-31T15:59:47.320Z,45.00
2017-08-31T16:02:13.603Z,45.60
2017-08-31T16:04:39.754Z,46.20
2017-08-31T16:07:05.893Z,45.90
2017-08-31T16:09:32.011Z,45.30
2017-08-31T16:11:58.175Z,45.90
2017-08-31T16:14:24.323Z,46.20
2017-08-31T16:16:50.707Z,46.20
2017-08-31T16:19:16.883Z,46.30
2017-08-31T16:21:43.023Z,47.00
2017-08-31T16:24:09.168Z,47.10
2017-08-31T16:26:35.308Z,47.10
2017-08-31T16:29:01.526Z,47.00
2017-08-31T16:31:27.694Z,46.70
2017-08-31T16:33:53.845Z,47.70
2017-08-31T16:36:22.025Z,47.00
2017-08-31T16:38:50.413Z,46.20
2017-08-31T16:41:16.534Z,46.10
2017-08-31T16:43:42.676Z,46.40
2017-08-31T16:46:08.968Z,45.40
2017-08-31T16:48:35.198Z,45.90
2017-08-31T16:51:01.344Z,45.20
2017-08-31T16:53:27.494Z,44.60
2017-08-31T16:55:53.638Z,45.10
2017-08-31T16:58:19.830Z,46.00
2017-08-31T17:00:45.979Z,46.60
2017-08-31T17:03:12.123Z,46.40
2017-08-31T17:05:38.256Z,45.60
2017-08-31T17:08:04.684Z,45.80
2017-08-31T17:10:33.009Z,46.70
2017-08-31T17:12:59.554Z,45.80
2017-08-31T17:15:25.826Z,46.30
2017-08-31T17:17:52.084Z,45.60
2017-08-31T17:20:18.701Z,45.70
2017-08-31T17:22:44.939Z,46.40
2017-08-31T17:25:11.086Z,46.20
2017-08-31T17:27:37.203Z,46.20
2017-08-31T17:30:03.348Z,46.40
2017-08-31T17:32:30.759Z,46.00
2017-08-31T17:34:58.998Z,45.60
2017-08-31T17:37:27.467Z,45.80
2017-08-31T17:39:53.639Z,46.10
2017-08-31T17:42:19.906Z,46.30
2017-08-31T17:44:46.095Z,47.00
2017-08-31T17:47:12.242Z,47.00
2017-08-31T17:49:38.427Z,46.30
2017-08-31T17:52:05.347Z,46.70
2017-08-31T17:54:31.531Z,46.70
2017-08-31T17:56:57.726Z,47.10
2017-08-31T17:59:23.899Z,47.30
2017-08-31T18:01:50.060Z,47.50
2017-08-31T18:04:16.202Z,47.60
2017-08-31T18:06:42.326Z,47.90
2017-08-31T18:09:08.486Z,48.00
2017-08-31T18:11:34.724Z,48.20
2017-08-31T18:14:01.220Z,49.30
2017-08-31T18:16:27.434Z,48.60
2017-08-31T18:18:53.591Z,47.90
2017-08-31T18:21:19.764Z,48.50
2017-08-31T18:23:45.969Z,48.50
2017-08-31T18:26:12.139Z,48.60
2017-08-31T18:28:38.315Z,50.00
2017-08-31T18:31:04.556Z,49.90
2017-08-31T18:33:30.729Z,49.10
2017-08-31T18:35:56.939Z,49.40
2017-08-31T18:38:23.063Z,49.70
2017-08-31T18:40:49.208Z,49.90
2017-08-31T18:43:15.387Z,49.70
2017-08-31T18:45:41.608Z,49.70
2017-08-31T18:48:07.759Z,49.60
2017-08-31T18:50:33.910Z,49.60
2017-08-31T18:53:00.042Z,50.20
2017-08-31T18:55:26.251Z,49.70
2017-08-31T18:57:52.415Z,49.80
2017-08-31T19:00:18.623Z,49.50
2017-08-31T19:02:44.807Z,49.60
2017-08-31T19:05:10.959Z,50.30
2017-08-31T19:07:37.098Z,50.40
2017-08-31T19:10:03.291Z,50.20
2017-08-31T19:12:29.448Z,50.60
2017-08-31T19:14:55.594Z,50.60
2017-08-31T19:17:22.583Z,50.30
2017-08-31T19:19:48.831Z,50.40
2017-08-31T19:22:15.006Z,50.80
2017-08-31T19:24:42.335Z,50.10
2017-08-31T19:27:08.503Z,50.40
2017-08-31T19:29:35.397Z,51.30
2017-08-31T19:32:01.534Z,51.10
2017-08-31T19:34:27.706Z,51.40
2017-08-31T19:36:53.853Z,51.10
2017-08-31T19:39:20.005Z,51.60
2017-08-31T19:41:46.183Z,51.70
2017-08-31T19:44:12.323Z,52.20
2017-08-31T19:46:38.486Z,52.40
2017-08-31T19:49:04.609Z,53.10
2017-08-31T19:51:30.785Z,52.60
2017-08-31T19:53:56.920Z,52.70
2017-08-31T19:56:23.051Z,53.40
2017-08-31T19:58:49.234Z,53.80
2017-08-31T20:01:15.383Z,52.80
2017-08-31T20:03:41.541Z,53.30
2017-08-31T20:06:07.702Z,54.20
2017-08-31T20:08:33.850Z,55.30
2017-08-31T20:10:59.978Z,55.10
2017-08-31T20:13:26.130Z,55.10
2017-08-31T20:15:52.266Z,55.00
2017-08-31T20:18:18.422Z,55.20
2017-08-31T20:20:44.584Z,55.10
2017-08-31T20:23:10.828Z,54.80
2017-08-31T20:25:37.008Z,54.90
2017-08-31T20:28:03.191Z,54.90
2017-08-31T20:30:29.343Z,55.00
2017-08-31T20:32:55.552Z,55.10
2017-08-31T20:35:21.726Z,55.40
2017-08-31T20:37:48.051Z,55.90
2017-08-31T20:40:14.214Z,56.10
2017-08-31T20:42:40.420Z,56.50
2017-08-31T20:45:06.681Z,57.10
2017-08-31T20:47:32.870Z,57.80
2017-08-31T20:49:59.021Z,57.80
2017-08-31T20:52:25.396Z,57.50
2017-08-31T20:54:51.588Z,57.80
2017-08-31T20:57:17.739Z,57.80
2017-08-31T20:59:44.054Z,57.00
2017-08-31T21:02:10.231Z,57.10
2017-08-31T21:04:36.395Z,56.60
2017-08-31T21:07:02.674Z,57.10
2017-08-31T21:09:28.881Z,57.10
2017-08-31T21:11:55.135Z,57.10
2017-08-31T21:14:21.295Z,57.20
2017-08-31T21:16:47.496Z,57.10
2017-08-31T21:19:13.796Z,57.90
2017-08-31T21:21:39.927Z,57.80
2017-08-31T21:24:06.417Z,57.80
2017-08-31T21:26:32.615Z,57.70
2017-08-31T21:28:58.803Z,57.90
2017-08-31T21:31:24.940Z,57.80
2017-08-31T21:33:51.095Z,57.80
2017-08-31T21:36:17.257Z,57.70
2017-08-31T21:38:43.402Z,57.70
2017-08-31T21:41:09.607Z,57.70
2017-08-31T21:43:35.770Z,57.60
2017-08-31T21:46:01.908Z,58.20
2017-08-31T21:48:28.090Z,57.70
2017-08-31T21:50:54.203Z,58.40
2017-08-31T21:53:20.420Z,58.60
2017-08-31T21:55:46.600Z,58.60
2017-08-31T21:58:12.751Z,58.60
2017-08-31T22:00:38.919Z,58.60
2017-08-31T22:03:05.050Z,58.50
2017-08-31T22:05:31.191Z,58.20
2017-08-31T22:07:57.334Z,57.80
2017-08-31T22:10:23.508Z,58.40
2017-08-31T22:12:49.679Z,58.60
2017-08-31T22:15:15.852Z,57.70
2017-08-31T22:17:41.978Z,57.70
2017-08-31T22:20:08.127Z,58.10
2017-08-31T22:22:34.316Z,57.90
2017-08-31T22:25:00.466Z,58.10
2017-08-31T22:27:26.598Z,58.60
2017-08-31T22:29:52.756Z,58.30
2017-08-31T22:32:18.896Z,59.20
2017-08-31T22:34:45.784Z,59.40
2017-08-31T22:37:11.918Z,59.40
2017-08-31T22:39:38.148Z,59.10
2017-08-31T22:42:04.286Z,59.10
2017-08-31T22:44:30.454Z,59.00
2017-08-31T22:46:56.574Z,59.60
2017-08-31T22:49:22.752Z,59.80
2017-08-31T22:51:48.915Z,60.50
2017-08-31T22:54:20.124Z,59.90
2017-08-31T22:56:51.331Z,59.80
2017-08-31T22:59:17.470Z,59.40
2017-08-31T23:01:43.646Z,59.70
2017-08-31T23:04:09.826Z,59.90
2017-08-31T23:06:35.951Z,60.30
2017-08-31T23:09:02.113Z,60.60
2017-08-31T23:11:28.307Z,60.90
2017-08-31T23:13:54.434Z,60.90
2017-08-31T23:16:20.617Z,61.10
2017-08-31T23:18:46.737Z,61.20
2017-08-31T23:21:12.938Z,62.00
2017-08-31T23:23:39.061Z,61.40
2017-08-31T23:26:05.543Z,61.70
2017-08-31T23:28:31.658Z,61.20
2017-08-31T23:30:57.810Z,61.50
2017-08-31T23:33:23.933Z,60.70
2017-08-31T23:35:50.086Z,60.70
2017-08-31T23:38:16.215Z,62.30
2017-08-31T23:40:42.361Z,61.70
2017-08-31T23:43:08.481Z,61.70
2017-08-31T23:45:34.675Z,62.00
2017-08-31T23:48:00.852Z,61.70
2017-08-31T23:50:26.995Z,62.30
2017-08-31T23:52:53.156Z,62.40
2017-08-31T23:55:19.303Z,62.20
2017-08-31T23:57:45.444Z,62.70
